Time;durP1;ratioP1;P1;durP2;ratioP2;P2;SDS_P1;SDS_P2;PMS_P1;PMS_P2;Temp;Humidity;BMP_temperature;BMP_pressure;BME280_temperature;BME280_humidity;BME280_pressure;Samples;Min_cycle;Max_cycle;Signal;HPM_P1;HPM_P2
2020/12/17 00:01:22;;;;;;;9.89;7.76;;;10.10;99.90;;;15.13;84.83;101230.88;1687822;74;24429;-80
2020/12/17 00:03:38;;;;;;;8.33;7.49;;;10.10;99.90;;;15.40;83.94;101229.54;1690879;75;24455;-80
2020/12/17 00:05:54;;;;;;;7.93;7.08;;;10.10;99.90;;;15.50;83.51;101221.20;1684751;75;24958;-79
2020/12/17 00:08:10;;;;;;;7.84;7.05;;;10.10;99.90;;;15.37;83.63;101228.64;1687314;75;24628;-80
2020/12/17 00:10:26;;;;;;;8.97;7.56;;;10.10;99.90;;;15.32;84.44;101210.75;1689812;74;24432;-78
2020/12/17 00:12:45;;;;;;;8.38;7.51;;;10.10;99.90;;;15.45;83.68;101215.97;1687360;75;24912;-79
2020/12/17 00:15:07;;;;;;;9.34;7.30;;;10.10;99.90;;;15.45;84.22;101216.41;1690700;74;24526;-81
2020/12/17 00:17:23;;;;;;;8.19;7.02;;;10.10;99.90;;;15.80;83.10;101219.34;1686672;74;24487;-80
2020/12/17 00:19:40;;;;;;;8.33;7.48;;;10.20;99.90;;;15.48;83.20;101217.27;1694144;75;24442;-80
2020/12/17 00:21:56;;;;;;;7.72;6.95;;;10.20;99.90;;;15.63;83.01;101217.66;1683204;75;24457;-79
2020/12/17 00:24:12;;;;;;;9.91;7.33;;;10.10;99.90;;;15.69;82.79;101212.38;1683738;74;24519;-79
2020/12/17 00:26:28;;;;;;;7.96;6.86;;;10.20;99.90;;;15.70;82.44;101221.98;1681141;75;24456;-79
2020/12/17 00:28:44;;;;;;;7.86;6.68;;;10.20;99.90;;;15.57;83.24;101216.37;1682211;75;25005;-80
2020/12/17 00:31:01;;;;;;;7.82;6.90;;;10.30;99.90;;;15.63;83.03;101209.78;1687828;75;24502;-81
2020/12/17 00:33:17;;;;;;;5.31;4.81;;;10.30;99.90;;;15.81;83.12;101211.88;1683642;75;24540;-79
2020/12/17 00:35:33;;;;;;;6.98;6.26;;;10.30;99.90;;;15.57;83.72;101211.98;1680269;75;24520;-80
2020/12/17 00:37:51;;;;;;;7.51;6.53;;;10.30;99.90;;;15.59;83.76;101215.91;1681135;75;24437;-81
2020/12/17 00:40:12;;;;;;;7.16;6.44;;;10.40;99.90;;;15.72;83.67;101230.31;1683209;75;24478;-80
2020/12/17 00:42:29;;;;;;;6.89;6.11;;;10.40;99.90;;;15.94;82.34;101223.19;1681304;75;24525;-79
2020/12/17 00:44:46;;;;;;;8.50;5.52;;;10.40;99.90;;;15.70;83.91;101232.06;1689316;75;24428;-81
2020/12/17 00:47:02;;;;;;;8.59;6.46;;;10.40;99.90;;;15.64;84.05;101224.64;1682564;75;24462;-81
2020/12/17 00:49:18;;;;;;;9.59;6.65;;;10.50;99.90;;;15.89;82.39;101228.91;1686292;75;24433;-79
2020/12/17 00:51:35;;;;;;;7.54;5.67;;;10.50;99.90;;;15.77;82.73;101218.04;1689117;75;25089;-79
2020/12/17 00:53:51;;;;;;;7.56;6.71;;;10.50;99.90;;;15.52;83.28;101206.33;1695506;75;24469;-80
2020/12/17 00:56:08;;;;;;;6.98;6.10;;;10.40;99.90;;;15.93;81.77;101203.92;1689065;75;24487;-79
2020/12/17 00:58:25;;;;;;;7.17;6.41;;;10.30;99.90;;;15.55;82.04;101215.07;1697305;75;24597;-79
2020/12/17 01:00:43;;;;;;;7.10;6.00;;;10.30;99.90;;;15.56;82.86;101214.61;1689779;75;24436;-80
2020/12/17 01:03:03;;;;;;;7.95;6.88;;;10.20;99.90;;;15.36;83.46;101214.66;1688742;75;24575;-80
2020/12/17 01:05:20;;;;;;;7.67;6.90;;;10.20;99.90;;;15.61;82.42;101209.79;1694394;74;24901;-79
2020/12/17 01:07:36;;;;;;;7.92;6.06;;;10.30;99.90;;;15.74;82.99;101222.00;1693993;75;24502;-79
2020/12/17 01:09:52;;;;;;;8.89;7.22;;;10.30;99.90;;;15.55;83.15;101220.75;1681859;75;24454;-79
2020/12/17 01:12:11;;;;;;;9.25;5.76;;;10.30;99.90;;;15.68;81.91;101208.02;1682238;75;25071;-78
2020/12/17 01:14:27;;;;;;;6.63;5.90;;;10.30;99.90;;;15.60;82.55;101209.34;1694150;75;24508;-80
2020/12/17 01:16:45;;;;;;;7.70;5.84;;;10.40;99.90;;;15.63;82.92;101210.67;1684598;75;24513;-80
2020/12/17 01:19:02;;;;;;;7.35;6.67;;;10.40;99.90;;;15.59;83.10;101214.59;1683823;75;24553;-79
2020/12/17 01:21:19;;;;;;;6.83;6.14;;;10.40;99.90;;;15.66;82.42;101208.02;1691417;75;24540;-79
2020/12/17 01:23:37;;;;;;;6.89;6.18;;;10.50;99.90;;;15.60;82.26;101208.02;1699143;75;24985;-81
2020/12/17 01:25:54;;;;;;;7.17;6.48;;;10.40;99.90;;;15.49;83.07;101209.81;1688029;73;24480;-80
2020/12/17 01:28:14;;;;;;;6.60;5.90;;;10.40;99.90;;;15.55;82.56;101208.51;1687315;75;24437;-78
2020/12/17 01:30:30;;;;;;;7.28;6.49;;;10.40;99.90;;;15.47;82.64;101208.09;1683882;75;24415;-80
2020/12/17 01:32:46;;;;;;;7.51;6.34;;;10.40;99.90;;;15.64;83.24;101202.33;1681117;75;24443;-80
2020/12/17 01:35:04;;;;;;;6.41;5.76;;;10.50;99.90;;;15.59;82.73;101201.05;1681794;75;24618;-79
2020/12/17 01:37:20;;;;;;;8.47;6.63;;;10.50;99.90;;;15.58;82.13;101203.67;1685585;75;24584;-78
2020/12/17 01:39:37;;;;;;;8.65;6.90;;;10.50;99.90;;;15.78;82.34;101211.89;1679198;75;24989;-79
2020/12/17 01:41:54;;;;;;;6.93;6.27;;;10.50;99.90;;;15.76;81.04;101207.55;1690594;74;24532;-79
2020/12/17 01:44:12;;;;;;;6.70;5.56;;;10.50;99.90;;;15.61;81.61;101202.34;1692051;74;24454;-80
2020/12/17 01:46:30;;;;;;;5.67;5.10;;;10.50;99.90;;;15.73;81.21;101211.50;1693279;75;24472;-78
2020/12/17 01:49:00;;;;;;;7.17;6.20;;;10.50;99.90;;;15.70;81.47;101202.30;1693738;75;24453;-79
2020/12/17 01:51:16;;;;;;;7.22;6.50;;;10.50;99.90;;;15.62;81.54;101210.64;1687705;75;24462;-80
2020/12/17 01:53:37;;;;;;;5.93;5.25;;;10.50;99.90;;;15.62;81.34;101211.95;1688447;75;24897;-78
2020/12/17 01:55:58;;;;;;;7.05;6.29;;;10.50;99.90;;;15.59;81.17;101211.97;1696840;75;24448;-80
2020/12/17 01:58:18;;;;;;;7.36;5.92;;;10.40;99.90;;;15.75;80.00;101207.09;1690834;75;24511;-80
2020/12/17 02:00:38;;;;;;;7.89;7.10;;;10.30;99.90;;;15.53;80.80;101209.38;1687769;75;24976;-80
2020/12/17 02:02:55;;;;;;;8.06;6.75;;;10.20;99.90;;;15.42;80.97;101210.73;1686687;75;24539;-81
2020/12/17 02:05:12;;;;;;;9.28;6.66;;;10.10;99.90;;;15.67;80.93;101217.64;1680268;75;24433;-80
2020/12/17 02:07:30;;;;;;;6.55;5.78;;;10.00;99.90;;;15.67;80.62;101217.64;1681812;75;24513;-81
2020/12/17 02:09:47;;;;;;;7.84;6.86;;;10.00;99.90;;;15.26;82.42;101213.36;1684868;75;24429;-79
2020/12/17 02:12:05;;;;;;;7.52;6.72;;;9.90;99.90;;;15.32;82.08;101201.56;1699925;74;24462;-80
2020/12/17 02:14:25;;;;;;;8.22;6.80;;;9.90;99.90;;;15.40;82.28;101207.23;1700424;75;24936;-80
2020/12/17 02:16:42;;;;;;;7.88;7.05;;;9.90;99.90;;;15.31;82.41;101199.80;1694763;75;24495;-81
2020/12/17 02:18:58;;;;;;;9.82;6.90;;;9.80;99.90;;;15.26;83.01;101206.37;1690254;75;24541;-79
2020/12/17 02:21:17;;;;;;;7.92;6.90;;;9.80;99.90;;;15.26;82.64;101205.06;1696254;75;24891;-79
2020/12/17 02:23:36;;;;;;;8.29;6.70;;;9.80;99.90;;;15.22;83.23;101212.52;1682965;75;24511;-78
2020/12/17 02:25:54;;;;;;;8.08;7.22;;;9.80;99.90;;;15.25;83.13;101208.58;1702611;75;24876;-80
2020/12/17 02:28:13;;;;;;;7.54;5.83;;;9.70;99.90;;;15.13;84.29;101204.22;1692854;75;24496;-79
2020/12/17 02:30:29;;;;;;;8.37;7.38;;;9.70;99.90;;;15.02;84.71;101207.73;1683944;75;24416;-79
2020/12/17 02:32:45;;;;;;;8.76;6.90;;;9.70;99.90;;;15.28;83.93;101212.92;1684986;75;24449;-79
2020/12/17 02:35:04;;;;;;;6.48;5.31;;;9.70;99.90;;;15.08;84.88;101209.91;1682336;75;24461;-78
2020/12/17 02:37:21;;;;;;;8.24;7.14;;;9.70;99.90;;;14.93;85.61;101209.95;1694076;75;24442;-79
2020/12/17 02:39:37;;;;;;;7.91;7.09;;;9.70;99.90;;;15.19;85.22;101212.50;1685254;75;24520;-79
2020/12/17 02:41:53;;;;;;;9.28;7.82;;;9.80;99.90;;;15.16;85.05;101212.51;1683693;75;25253;-77
2020/12/17 02:44:11;;;;;;;7.43;6.70;;;9.90;99.90;;;15.46;84.75;101211.14;1684466;75;24453;-80
2020/12/17 02:46:27;;;;;;;8.79;7.86;;;9.90;99.90;;;15.32;85.30;101197.16;1688929;75;24466;-79
2020/12/17 02:48:52;;;;;;;9.15;7.69;;;10.00;99.90;;;15.35;84.88;101198.92;1699814;75;24816;-79
2020/12/17 02:51:11;;;;;;;7.81;7.02;;;10.00;99.90;;;15.37;84.42;101203.28;1683186;75;24527;-79
2020/12/17 02:53:27;;;;;;;8.35;7.40;;;10.00;99.90;;;15.26;84.66;101193.69;1692929;75;24876;-79
2020/12/17 02:55:44;;;;;;;7.74;6.80;;;10.00;99.90;;;15.32;84.98;101199.79;1692199;75;24449;-79
2020/12/17 02:58:00;;;;;;;8.67;7.06;;;10.00;99.90;;;15.07;85.54;101190.24;1683537;75;24449;-79
2020/12/17 03:00:16;;;;;;;6.81;5.78;;;10.00;99.90;;;15.27;85.08;101181.02;1690369;75;24570;-79
2020/12/17 03:02:37;;;;;;;9.94;7.34;;;10.00;99.90;;;15.06;86.15;101180.18;1693096;75;24503;-79
2020/12/17 03:04:55;;;;;;;8.73;6.73;;;10.00;99.90;;;15.39;84.38;101183.20;1689648;75;24450;-79
2020/12/17 03:07:11;;;;;;;8.69;7.80;;;10.00;99.90;;;15.10;85.85;101184.55;1687259;75;24993;-79
2020/12/17 03:09:27;;;;;;;7.49;6.73;;;10.00;99.90;;;15.40;85.05;101188.86;1699289;74;24432;-80
2020/12/17 03:11:44;;;;;;;7.25;6.53;;;10.00;99.90;;;15.36;84.79;101190.16;1682948;75;24543;-78
2020/12/17 03:14:01;;;;;;;8.08;7.16;;;10.10;99.90;;;15.39;85.29;101193.69;1685506;75;24955;-79
2020/12/17 03:16:17;;;;;;;7.92;7.06;;;10.10;99.90;;;15.51;85.05;101196.26;1681761;75;24893;-79
2020/12/17 03:18:34;;;;;;;6.76;5.77;;;10.10;99.90;;;15.48;84.71;101192.77;1688032;75;24445;-79
2020/12/17 03:20:50;;;;;;;6.95;6.26;;;10.20;99.90;;;15.42;85.11;101191.48;1693533;75;24945;-79
2020/12/17 03:23:06;;;;;;;8.01;7.05;;;10.20;99.90;;;15.67;84.45;101190.06;1682537;74;24903;-80
2020/12/17 03:25:22;;;;;;;6.79;6.16;;;10.30;99.90;;;15.74;84.10;101185.23;1678587;75;24468;-78
2020/12/17 03:27:39;;;;;;;8.09;7.28;;;10.30;99.90;;;15.61;84.75;101189.22;1685897;75;24557;-78
2020/12/17 03:29:56;;;;;;;7.57;6.63;;;10.40;99.90;;;15.85;83.60;101182.11;1681239;75;24475;-78
2020/12/17 03:32:12;;;;;;;7.66;6.92;;;10.40;99.90;;;15.66;84.34;101188.34;1682808;75;24443;-80
2020/12/17 03:34:29;;;;;;;7.87;7.16;;;10.40;99.90;;;15.80;83.41;101190.45;1690001;75;24509;-79
2020/12/17 03:36:47;;;;;;;7.32;6.46;;;10.40;99.90;;;15.69;83.50;101193.56;1679194;75;24465;-79
2020/12/17 03:39:04;;;;;;;7.10;5.52;;;10.40;99.90;;;15.68;84.26;101197.05;1690988;75;24445;-78
2020/12/17 03:41:20;;;;;;;8.90;5.65;;;10.40;99.90;;;15.42;84.91;101194.98;1679115;75;24934;-79
2020/12/17 03:43:36;;;;;;;7.50;6.20;;;10.40;99.90;;;15.49;85.06;101195.84;1674915;75;24506;-79
2020/12/17 03:45:52;;;;;;;8.56;6.80;;;10.40;99.90;;;15.48;84.63;101196.70;1692403;75;24805;-78
2020/12/17 03:48:10;;;;;;;6.55;5.87;;;10.40;99.90;;;15.57;84.07;101189.66;1702205;74;24475;-81
2020/12/17 03:50:28;;;;;;;6.91;6.20;;;10.30;99.90;;;15.47;84.70;101175.28;1687262;75;24427;-79
2020/12/17 03:52:44;;;;;;;7.09;6.40;;;10.30;99.90;;;15.42;84.41;101186.23;1688185;75;24531;-78
2020/12/17 03:55:04;;;;;;;7.41;6.53;;;10.20;99.90;;;15.35;84.80;101196.30;1687954;75;25987;-80
2020/12/17 03:57:20;;;;;;;7.60;5.88;;;10.10;99.90;;;15.55;84.12;101184.88;1691395;75;24453;-78
2020/12/17 03:59:40;;;;;;;7.27;6.07;;;10.10;99.90;;;15.27;84.91;101177.08;1699954;75;24911;-79
2020/12/17 04:01:56;;;;;;;8.36;7.56;;;10.00;99.90;;;15.26;85.27;101185.38;1675504;75;24509;-80
2020/12/17 04:04:13;;;;;;;8.83;7.42;;;10.00;99.90;;;15.44;84.99;101179.23;1675082;75;24431;-79
2020/12/17 04:06:31;;;;;;;8.36;7.56;;;9.90;99.90;;;15.53;84.13;101179.19;1694723;75;24873;-80
2020/12/17 04:08:47;;;;;;;9.90;7.37;;;9.90;99.90;;;15.44;84.67;101177.92;1681900;75;24517;-79
2020/12/17 04:11:07;;;;;;;6.60;5.56;;;9.90;99.90;;;15.61;84.27;101181.34;1683895;75;24576;-79
2020/12/17 04:13:23;;;;;;;7.94;7.11;;;9.90;99.90;;;15.35;85.22;101186.66;1679759;75;24472;-79
2020/12/17 04:15:40;;;;;;;8.21;6.99;;;9.90;99.90;;;15.51;84.70;101183.13;1679889;75;24425;-79
2020/12/17 04:17:56;;;;;;;7.70;6.22;;;9.90;99.90;;;15.33;85.45;101185.81;1697195;75;24458;-79
2020/12/17 04:20:13;;;;;;;8.38;7.41;;;9.90;99.90;;;15.23;86.65;101181.89;1687156;75;24841;-78
2020/12/17 04:22:29;;;;;;;9.94;7.29;;;9.90;99.90;;;15.28;86.75;101190.20;1686363;75;24453;-79
2020/12/17 04:24:47;;;;;;;5.75;4.47;;;9.90;99.90;;;15.34;86.41;101188.86;1681273;74;24996;-80
2020/12/17 04:27:04;;;;;;;7.11;6.36;;;9.90;99.90;;;15.13;87.48;101184.98;1675349;75;24910;-79
2020/12/17 04:29:20;;;;;;;9.73;7.21;;;9.90;99.90;;;15.09;87.77;101181.94;1689573;75;24496;-80
2020/12/17 04:31:37;;;;;;;7.19;5.84;;;9.90;99.90;;;15.21;87.84;101177.11;1690664;75;24461;-79
2020/12/17 04:33:53;;;;;;;7.27;5.94;;;9.90;99.90;;;14.93;88.68;101178.91;1680184;75;25025;-78
2020/12/17 04:36:16;;;;;;;7.55;6.76;;;9.90;99.90;;;14.92;89.29;101171.47;1686981;75;24431;-77
2020/12/17 04:38:34;;;;;;;7.76;6.11;;;9.90;99.90;;;15.10;89.16;101173.18;1686858;75;24489;-79
2020/12/17 04:40:51;;;;;;;7.60;5.10;;;9.90;99.90;;;15.09;89.31;101185.87;1685393;75;24953;-80
2020/12/17 04:43:07;;;;;;;7.66;6.86;;;9.90;99.90;;;14.85;90.39;101182.86;1695796;75;24433;-78
2020/12/17 04:45:26;;;;;;;8.44;7.50;;;9.90;99.90;;;14.84;91.31;101181.09;1682557;74;24593;-79
2020/12/17 04:47:46;;;;;;;8.04;6.57;;;9.90;99.90;;;15.09;90.75;101188.50;1679093;75;24449;-80
2020/12/17 04:50:14;;;;;;;8.88;7.20;;;9.90;99.90;;;14.76;90.66;101179.37;1680202;75;24446;-78
2020/12/17 04:52:32;;;;;;;9.17;7.79;;;9.90;99.90;;;14.77;91.38;101196.42;1696959;75;24435;-79
2020/12/17 04:55:11;;;;;;;8.75;6.54;;;9.90;99.90;;;14.85;92.97;101198.59;1679646;75;24442;-79
2020/12/17 04:57:32;;;;;;;6.91;5.68;;;9.90;99.90;;;14.74;92.13;101192.92;1679910;75;24988;-77
2020/12/17 04:59:51;;;;;;;7.66;6.70;;;9.90;99.90;;;14.64;92.99;101205.58;1702978;75;24437;-77
2020/12/17 05:02:10;;;;;;;8.14;7.10;;;9.90;99.90;;;14.60;93.45;101199.49;1694806;75;24521;-78
2020/12/17 05:04:28;;;;;;;8.57;7.73;;;9.90;99.90;;;14.67;93.61;101205.15;1694368;75;24467;-79
2020/12/17 05:06:56;;;;;;;8.77;6.82;;;9.90;99.90;;;14.70;94.42;101206.91;1680156;75;24833;-79
2020/12/17 05:09:14;;;;;;;8.07;6.37;;;9.90;99.90;;;14.66;93.71;101207.77;1683377;75;24452;-79
2020/12/17 05:11:30;;;;;;;6.33;5.00;;;10.00;99.90;;;14.65;94.23;101209.97;1695689;75;24448;-79
2020/12/17 05:13:48;;;;;;;8.08;6.56;;;10.00;99.90;;;14.45;95.57;101209.95;1700434;75;24550;-78
2020/12/17 05:18:41;;;;;;;7.11;6.04;;;9.90;99.90;;;14.57;95.48;101213.91;1688309;75;24948;-77
2020/12/17 05:21:01;;;;;;;9.77;8.30;;;9.90;99.90;;;14.53;95.24;101218.70;1687173;75;24488;-78
2020/12/17 05:23:19;;;;;;;9.89;8.22;;;10.00;99.90;;;14.85;95.37;101220.00;1680990;75;24413;-77
2020/12/17 05:25:37;;;;;;;8.44;6.98;;;10.00;99.90;;;14.89;94.69;101229.63;1680264;73;24432;-79
2020/12/17 05:27:56;;;;;;;9.05;7.92;;;10.00;99.90;;;14.76;94.94;101236.59;1689716;75;24872;-77
2020/12/17 05:30:12;;;;;;;9.18;8.03;;;10.00;99.90;;;14.82;95.19;101237.93;1688577;75;24451;-78
2020/12/17 05:32:29;;;;;;;8.15;7.23;;;10.00;99.90;;;14.82;95.35;101241.86;1692578;75;24934;-79
2020/12/17 05:34:49;;;;;;;9.15;7.74;;;10.00;99.90;;;14.55;96.11;101243.59;1695745;75;25026;-77
2020/12/17 05:37:09;;;;;;;7.21;6.51;;;10.10;99.90;;;14.78;95.51;101240.09;1689836;75;24500;-78
2020/12/17 05:39:28;;;;;;;7.39;6.64;;;10.00;99.90;;;14.75;95.11;101251.02;1688435;75;25104;-78
2020/12/17 05:41:46;;;;;;;9.78;8.77;;;10.10;99.90;;;14.74;95.34;101245.34;1691005;75;24420;-79
2020/12/17 05:44:13;;;;;;;9.64;8.60;;;10.00;99.90;;;14.84;95.41;101249.27;1691804;75;24577;-79
2020/12/17 05:46:41;;;;;;;10.30;8.86;;;10.10;99.90;;;14.89;95.51;101255.85;1695085;75;24457;-78
2020/12/17 05:52:17;;;;;;;7.92;7.05;;;10.10;99.90;;;15.22;95.60;101253.19;1813634;70;25191;-77
2020/12/17 05:54:37;;;;;;;9.44;8.48;;;10.10;99.90;;;14.84;95.66;101260.22;1781187;72;24537;-79
2020/12/17 05:57:07;;;;;;;9.81;8.84;;;10.00;99.90;;;15.02;95.91;101261.50;1782869;71;24403;-78
2020/12/17 05:59:26;;;;;;;10.49;8.99;;;10.00;99.90;;;14.96;95.57;101257.58;1765797;72;25075;-79
2020/12/17 06:01:42;;;;;;;10.19;9.18;;;10.10;99.90;;;15.06;94.89;101260.64;1766276;71;24833;-78
2020/12/17 06:03:59;;;;;;;10.52;9.45;;;10.10;99.90;;;15.06;94.52;101268.05;1774681;71;24515;-79
2020/12/17 06:06:15;;;;;;;11.15;9.94;;;10.10;99.90;;;15.07;94.85;101270.24;1777669;71;24866;-79
2020/12/17 06:08:38;;;;;;;8.49;7.61;;;10.10;99.90;;;15.08;94.66;101273.29;1760308;71;24419;-80
2020/12/17 06:11:17;;;;;;;11.09;10.01;;;10.10;99.90;;;14.93;94.98;101286.00;1783593;71;24925;-79
2020/12/17 06:13:38;;;;;;;11.79;9.23;;;10.10;99.90;;;15.24;95.40;101285.52;1780678;71;24438;-78
2020/12/17 06:16:00;;;;;;;12.24;10.78;;;10.10;99.90;;;15.06;94.29;101299.98;1767959;71;24929;-76
2020/12/17 06:18:20;;;;;;;13.38;10.97;;;10.10;99.90;;;15.25;95.40;101303.45;1760633;71;24929;-78
2020/12/17 06:20:38;;;;;;;12.20;10.75;;;10.10;99.90;;;15.41;94.66;101306.11;1772829;70;24456;-79
2020/12/17 06:22:57;;;;;;;11.26;10.11;;;10.10;99.90;;;15.25;94.67;101309.59;1790796;70;24423;-77
2020/12/17 06:25:20;;;;;;;12.04;10.84;;;10.10;99.90;;;15.32;93.53;101305.21;1779887;70;24966;-76
2020/12/17 06:27:41;;;;;;;11.62;10.54;;;10.10;99.90;;;15.30;93.39;101316.14;1767228;72;24759;-78
2020/12/17 06:30:07;;;;;;;13.24;11.84;;;10.10;99.90;;;15.31;95.26;101324.44;1779893;71;24856;-78
2020/12/17 06:32:29;;;;;;;13.33;12.03;;;10.10;99.90;;;15.54;94.30;101329.27;1770902;71;24425;-76
2020/12/17 06:34:54;;;;;;;11.32;9.94;;;10.10;99.90;;;15.61;94.03;101341.48;1777459;71;24544;-78
2020/12/17 06:37:16;;;;;;;14.67;13.24;;;10.10;99.90;;;15.34;93.95;101341.05;1756759;72;24520;-79
2020/12/17 06:39:33;;;;;;;13.96;12.56;;;10.10;99.90;;;15.49;93.55;101344.14;1762404;72;24992;-77
2020/12/17 06:41:56;;;;;;;15.14;13.41;;;10.10;99.90;;;15.49;92.92;101348.93;1737596;71;24558;-78
2020/12/17 06:44:32;;;;;;;15.09;13.69;;;10.10;99.90;;;15.43;93.30;101351.57;1779920;71;24500;-79
2020/12/17 06:46:55;;;;;;;14.82;13.33;;;10.10;99.90;;;15.41;93.57;101356.39;1775133;71;24479;-78
2020/12/17 06:49:21;;;;;;;12.78;11.49;;;10.00;99.90;;;15.27;93.15;101363.38;1771329;72;24872;-78
2020/12/17 06:51:44;;;;;;;14.47;13.19;;;10.00;99.90;;;15.10;93.21;101375.16;1763185;71;24401;-77
2020/12/17 06:54:06;;;;;;;12.72;11.50;;;10.00;99.90;;;15.22;93.84;101375.61;1766946;72;24957;-76
2020/12/17 06:56:24;;;;;;;16.09;14.49;;;10.00;99.90;;;15.12;93.80;101376.05;1769555;71;25031;-78
2020/12/17 06:58:41;;;;;;;14.57;13.19;;;10.00;99.90;;;15.22;93.66;101383.05;1779202;71;24419;-77
2020/12/17 07:00:58;;;;;;;15.23;13.75;;;10.00;99.90;;;15.15;93.65;101391.78;1748385;71;25143;-78
2020/12/17 07:03:33;;;;;;;11.60;10.36;;;10.00;99.90;;;15.06;94.03;101400.97;1777989;71;24472;-78
2020/12/17 07:05:50;;;;;;;15.86;14.25;;;9.90;99.90;;;15.15;93.78;101397.92;1769740;71;24477;-78
2020/12/17 07:08:09;;;;;;;15.74;14.28;;;9.90;99.90;;;15.30;93.56;101402.73;1769869;71;24464;-77
2020/12/17 07:10:30;;;;;;;12.30;11.08;;;9.90;99.90;;;15.27;93.13;101407.98;1763276;71;24430;-78
2020/12/17 07:12:51;;;;;;;14.37;12.84;;;9.90;99.90;;;14.96;94.13;101412.30;1766150;71;24457;-79
2020/12/17 07:15:33;;;;;;;11.37;10.27;;;9.90;99.90;;;15.23;93.47;101416.70;1728189;72;24520;-78
2020/12/17 07:17:50;;;;;;;16.01;14.59;;;9.90;99.90;;;15.07;93.95;101419.75;1764673;71;24901;-78
2020/12/17 07:20:07;;;;;;;16.40;14.86;;;9.90;99.90;;;15.25;93.58;101417.16;1758024;71;24858;-78
2020/12/17 07:22:24;;;;;;;16.89;15.20;;;9.90;99.90;;;15.15;94.11;101416.70;1764359;71;24454;-77
2020/12/17 07:24:44;;;;;;;16.40;14.84;;;9.90;99.90;;;15.26;93.55;101437.27;1769897;71;24441;-78
2020/12/17 07:27:25;;;;;;;16.21;14.62;;;9.90;99.90;;;15.05;93.65;101431.55;1762880;71;24523;-78
2020/12/17 07:29:48;;;;;;;19.13;17.37;;;9.90;99.90;;;15.08;93.50;101431.56;1770348;71;24462;-79
2020/12/17 07:32:32;;;;;;;19.43;17.67;;;9.90;99.90;;;15.25;93.53;101442.52;1739821;72;24897;-78
2020/12/17 07:34:56;;;;;;;18.90;17.05;;;9.90;99.90;;;15.22;93.42;101455.20;1757544;72;24977;-79
2020/12/17 07:40:41;;;;;;;19.68;17.83;;;9.90;99.90;;;15.37;92.71;101456.52;1745293;72;25204;-80
2020/12/17 07:43:10;;;;;;;18.60;16.77;;;9.80;99.90;;;15.30;92.88;101450.81;1728136;74;24518;-78
2020/12/17 07:45:51;;;;;;;16.61;14.96;;;9.90;99.90;;;15.24;92.47;101458.69;1728268;74;24605;-79
2020/12/17 07:49:05;;;;;;;;;;;;;;;;;;;;;
2020/12/17 08:20:33;;;;;;;13.85;12.36;;;9.90;99.90;;;15.53;92.84;101521.75;1817904;69;25241;-77
2020/12/17 08:22:54;;;;;;;13.47;12.14;;;9.80;99.90;;;15.37;92.71;101525.18;1787457;70;24445;-74
2020/12/17 08:25:12;;;;;;;12.16;10.98;;;9.90;99.90;;;15.34;92.80;101531.31;1773148;71;24915;-77
2020/12/17 08:27:31;;;;;;;12.71;11.56;;;9.90;99.90;;;15.10;93.43;101536.48;1770357;71;24534;-76
2020/12/17 08:29:50;;;;;;;12.13;11.02;;;10.00;99.90;;;15.18;93.26;101540.02;1769032;71;24901;-78
2020/12/17 08:32:13;;;;;;;14.00;12.60;;;10.00;99.90;;;15.34;92.91;101531.31;1769194;71;25022;-79
2020/12/17 08:34:32;;;;;;;13.14;10.64;;;10.10;99.90;;;15.34;93.00;101538.30;1772569;71;24456;-75
2020/12/17 08:36:52;;;;;;;12.45;10.54;;;10.10;99.90;;;15.18;92.92;101534.77;1745108;72;24395;-75
2020/12/17 08:39:12;;;;;;;12.17;10.96;;;10.10;99.90;;;15.22;92.75;101540.91;1771934;71;24439;-75
2020/12/17 08:41:55;;;;;;;11.83;10.39;;;10.10;99.90;;;15.15;93.34;101543.94;1773788;71;24535;-77
2020/12/17 08:44:14;;;;;;;10.84;9.75;;;10.10;99.90;;;15.17;93.06;101551.39;1769978;70;24615;-76
2020/12/17 08:46:36;;;;;;;12.37;11.10;;;10.10;99.90;;;15.20;93.27;101548.77;1770644;70;24455;-76
2020/12/17 08:48:57;;;;;;;11.14;10.00;;;10.20;99.90;;;15.32;93.52;101542.69;1783565;71;25263;-78
2020/12/17 08:51:19;;;;;;;11.34;10.16;;;10.20;99.90;;;15.30;93.19;101545.28;1776794;71;25103;-76
2020/12/17 08:53:37;;;;;;;10.27;9.23;;;10.20;99.90;;;15.42;93.20;101547.98;1775392;71;24766;-78
2020/12/17 08:56:08;;;;;;;9.42;8.42;;;10.30;99.90;;;15.26;93.51;101554.03;1773442;71;24424;-77
2020/12/17 08:58:25;;;;;;;12.94;11.12;;;10.30;99.90;;;15.25;93.88;101560.59;1769122;71;24458;-75
2020/12/17 09:00:43;;;;;;;11.34;10.28;;;10.40;99.90;;;15.54;93.57;101548.00;1769800;71;25030;-74
2020/12/17 09:03:02;;;;;;;10.20;9.22;;;10.40;99.90;;;15.59;92.83;101551.52;1774009;71;24955;-74
2020/12/17 09:05:19;;;;;;;9.88;8.95;;;10.40;99.90;;;15.43;93.68;101547.56;1774012;70;24889;-74
2020/12/17 09:07:42;;;;;;;11.17;10.08;;;10.50;99.90;;;15.35;93.51;101557.98;1774210;70;24496;-77
2020/12/17 09:09:54;;;;;;;10.09;9.17;;;10.50;99.90;;;15.49;93.59;101562.01;1764272;71;24973;-75
2020/12/17 09:12:14;;;;;;;9.69;8.65;;;10.60;99.90;;;15.60;92.48;101568.16;1789421;71;24441;-77
2020/12/17 09:14:33;;;;;;;9.79;8.84;;;10.60;99.90;;;15.48;92.28;101566.80;1769558;70;24520;-79
2020/12/17 09:16:50;;;;;;;8.26;7.46;;;10.60;99.90;;;15.70;91.95;101578.66;1769124;71;24492;-77
2020/12/17 09:19:12;;;;;;;8.41;7.57;;;10.70;99.90;;;15.49;92.72;101573.81;1779727;71;24528;-75
2020/12/17 09:21:30;;;;;;;8.88;8.04;;;10.70;99.90;;;15.67;91.92;101589.16;1770537;71;24464;-75
2020/12/17 09:23:58;;;;;;;8.49;7.33;;;10.70;99.90;;;15.67;91.39;101592.21;1785033;71;24941;-74
2020/12/17 09:26:18;;;;;;;8.36;7.28;;;10.70;99.90;;;15.38;92.22;101607.00;1773659;70;24417;-75
2020/12/17 09:31:29;;;;;;;6.12;5.50;;;10.70;99.90;;;15.60;91.78;101595.26;1735518;72;25298;-73
2020/12/17 09:33:49;;;;;;;7.97;6.98;;;10.70;99.90;;;15.37;92.24;101610.47;1692097;75;24904;-74
2020/12/17 09:36:18;;;;;;;7.43;6.72;;;10.70;99.90;;;15.42;92.33;101614.92;1693066;75;24491;-74
2020/12/17 09:38:34;;;;;;;6.67;5.99;;;10.70;99.90;;;15.47;91.22;101617.55;1694324;75;24542;-79
2020/12/17 09:40:55;;;;;;;8.25;6.85;;;10.70;99.90;;;15.50;90.49;101619.76;1699099;75;24518;-73
2020/12/17 09:43:16;;;;;;;9.69;7.60;;;10.70;99.90;;;15.68;90.88;101613.22;1697122;75;24424;-75
2020/12/17 09:45:38;;;;;;;7.00;6.30;;;10.80;99.90;;;15.61;91.16;101621.97;1694748;75;24496;-73
2020/12/17 09:47:54;;;;;;;6.23;5.49;;;10.80;99.90;;;15.63;91.45;101613.67;1697060;75;24496;-75
2020/12/17 09:50:15;;;;;;;7.28;5.84;;;10.80;99.90;;;15.39;91.33;101607.46;1693428;75;25643;-76
2020/12/17 09:52:31;;;;;;;7.85;5.71;;;10.90;99.90;;;15.49;91.19;101633.73;1693538;75;24888;-74
2020/12/17 09:54:48;;;;;;;7.89;6.64;;;11.20;99.90;;;15.72;90.55;101620.25;1696820;75;24471;-75
2020/12/17 09:57:40;;;;;;;6.10;4.76;;;11.30;99.90;;;15.69;90.55;101636.00;1696140;75;24535;-74
2020/12/17 09:59:56;;;;;;;7.59;5.32;;;11.40;99.90;;;15.68;90.46;101629.44;1697348;75;24560;-80
2020/12/17 10:02:17;;;;;;;6.30;5.28;;;11.40;99.90;;;15.73;90.54;101629.86;1678571;75;24573;-74
2020/12/17 10:04:37;;;;;;;6.50;5.53;;;11.40;99.90;;;15.78;90.09;101646.52;1699207;75;24478;-74
2020/12/17 10:06:57;;;;;;;6.46;5.17;;;11.40;99.90;;;15.89;89.27;101642.16;1699423;75;24719;-75
2020/12/17 10:09:14;;;;;;;5.55;4.37;;;11.30;99.90;;;15.88;89.00;101639.53;1692596;75;24515;-74
2020/12/17 10:11:32;;;;;;;5.54;4.12;;;11.40;99.90;;;15.64;89.13;101636.84;1692325;75;24489;-74
2020/12/17 10:27:04;;;;;;;8.20;4.75;;;11.30;99.90;;;16.16;85.90;101646.13;1736672;72;25228;-77
2020/12/17 10:29:24;;;;;;;6.69;4.67;;;11.20;99.90;;;15.82;87.15;101646.94;1718154;73;24456;-75
2020/12/17 10:31:47;;;;;;;6.05;3.85;;;11.20;99.90;;;15.56;87.49;101663.51;1716932;73;24436;-76
2020/12/17 10:34:06;;;;;;;6.75;4.39;;;11.20;99.90;;;15.59;86.92;101659.58;1718310;73;24983;-76
2020/12/17 10:36:23;;;;;;;6.67;4.64;;;11.10;99.90;;;15.78;86.30;101669.27;1716486;73;24441;-76